Pagrindinis puslapis
METAR-TAF:

METAR-TAF

Oro uostai :

Oro pajėgų bazė

Solenzara, Prancūzija

platuma: 41-55N, ilguma: 009-24E, Aukštis: 8 m

Dabartinis oras

Ataskaita buvo paskelbta 29 minutes, ne 19:00 UTC
Vėjas 5 kt iš Vakarų, svyruoja nuo Vakarų/Pietvakarių ir Vakarų/Šiaurės Vakarų
Temperatūra 21°C
Drėgmė 83%
Slėgis 1017 hPa
Matomumas 10 km arba daugiau
Su prošvaistėmis ne aukštis 1900 ft
Su prošvaistėmis ne aukštis 2400 ft

METAR: LFKS 191900Z AUTO 27005KT 240V300 9999 BKN019 BKN024 21/18 Q1017

Laikas: 21:29 (19:29 UTC)

Prognozė

Ataskaita buvo paskelbta 4 valandos ir 55 minutes, ne 14:34 UTC
Prognozė galioja nuo 19 metu 15 UTC su 20 metu 15 UTC
Vėjas 8 kt iš Šiaurės/Šiaurės Vakarų
Matomumas: 7000 m
Su prošvaistėmis ne aukštis 5000 ft, Liūtiniai kamuoliniai debesys.
perkūnija, lietus
Tapsmas
nuo 19 metu 16 UTC su 19 metu 18 UTC
Mažai debesys ne aukštis 4000 ft
Tapsmas
nuo 20 metu 08 UTC su 20 metu 10 UTC
Vėjas 10 kt iš Šiaurės Rytų

TAF: LFKS 191434Z 1915/2015 34008KT 7000 TSRA BKN050CB BECMG 1916/1918 NSW FEW040 BECMG 2008/2010 04010KT

Orai ataskaitas ir orų prognozės (METAR, TAF).

turimą stotys yra geltonos ir raudonos taškus žemėlapyje.

Perkelti pele per norėdami pamatyti stoties vardą.

Tada spustelėkite, norėdami matyti oro stebėjimo ir prognozės.

Norėdami pakeisti žemėlapį: spustelėkite ant žalios mygtukų su juodo kryžiaus žemyn,; žalią mygtuką su brūkšneliu, jei norite nutolinti; arba žalių rodyklių gretimoms žemėlapius.


METAR-TAF: